createdAt,value
2019-05-12T00:01:59.579Z,12.30
2019-05-12T00:04:31.559Z,12.23
2019-05-12T00:07:04.745Z,12.60
2019-05-12T00:09:38.761Z,12.87
2019-05-12T00:12:10.359Z,11.73
2019-05-12T00:14:42.391Z,12.13
2019-05-12T00:17:14.339Z,12.00
2019-05-12T00:19:47.949Z,12.73
2019-05-12T00:22:22.579Z,13.00
2019-05-12T00:24:54.621Z,12.43
2019-05-12T00:27:28.463Z,12.70
2019-05-12T00:30:00.861Z,11.73
2019-05-12T00:32:32.910Z,12.10
2019-05-12T00:35:07.657Z,12.20
2019-05-12T00:37:38.801Z,11.80
2019-05-12T00:40:11.144Z,11.77
2019-05-12T00:42:43.101Z,12.43
2019-05-12T00:45:15.123Z,12.60
2019-05-12T00:47:48.064Z,12.43
2019-05-12T00:50:20.173Z,13.53
2019-05-12T00:52:52.187Z,12.80
2019-05-12T00:55:24.157Z,12.53
2019-05-12T00:57:58.203Z,12.83
2019-05-12T01:00:30.305Z,13.07
2019-05-12T01:03:02.291Z,13.73
2019-05-12T01:05:38.013Z,13.37
2019-05-12T01:08:09.713Z,12.97
2019-05-12T01:10:41.891Z,13.13
2019-05-12T01:13:13.973Z,14.33
2019-05-12T01:15:48.025Z,13.70
2019-05-12T01:18:19.764Z,14.33
2019-05-12T01:20:51.706Z,15.07
2019-05-12T01:23:23.756Z,14.17
2019-05-12T01:25:58.298Z,13.37
2019-05-12T01:28:30.099Z,14.37
2019-05-12T01:31:03.737Z,13.77
2019-05-12T01:33:37.963Z,13.23
2019-05-12T01:36:09.409Z,11.23
2019-05-12T01:38:41.473Z,10.30
2019-05-12T01:41:13.521Z,9.93
2019-05-12T01:43:45.487Z,9.70
2019-05-12T01:46:18.117Z,11.80
2019-05-12T01:48:50.646Z,16.33
2019-05-12T01:51:22.821Z,16.70
2019-05-12T01:54:08.549Z,14.80
2019-05-12T01:56:28.911Z,15.03
2019-05-12T01:59:00.967Z,16.70
2019-05-12T02:01:33.684Z,13.40
2019-05-12T02:04:07.789Z,11.80
2019-05-12T02:06:39.965Z,10.57
2019-05-12T02:09:14.575Z,9.67
2019-05-12T02:11:48.348Z,11.30
2019-05-12T02:14:20.485Z,9.77
2019-05-12T02:16:52.433Z,8.97
2019-05-12T02:19:24.423Z,15.13
2019-05-12T02:21:57.942Z,19.17
2019-05-12T02:24:30.640Z,21.13
2019-05-12T02:27:02.847Z,20.40
2019-05-12T02:29:34.917Z,20.27
2019-05-12T02:32:06.898Z,20.37
2019-05-12T02:34:38.889Z,22.17
2019-05-12T02:37:11.133Z,23.07
2019-05-12T02:39:44.877Z,21.63
2019-05-12T02:42:16.961Z,20.87
2019-05-12T02:44:48.954Z,20.93
2019-05-12T02:47:23.847Z,20.07
2019-05-12T02:49:55.028Z,22.37
2019-05-12T02:52:27.168Z,20.03
2019-05-12T02:55:00.863Z,20.60
2019-05-12T02:57:34.936Z,19.80
2019-05-12T03:00:09.973Z,20.17
2019-05-12T03:02:44.934Z,20.17
2019-05-12T03:05:16.909Z,20.60
2019-05-12T03:07:50.999Z,20.57
2019-05-12T03:10:25.257Z,21.20
2019-05-12T03:12:56.704Z,21.27
2019-05-12T03:15:28.698Z,22.63
2019-05-12T03:18:01.067Z,19.73
2019-05-12T03:20:35.040Z,17.53
2019-05-12T03:23:07.110Z,15.17
2019-05-12T03:25:39.294Z,16.40
2019-05-12T03:28:11.245Z,16.43
2019-05-12T03:30:48.383Z,18.00
2019-05-12T03:33:19.525Z,16.67
2019-05-12T03:35:54.985Z,15.60
2019-05-12T03:38:27.815Z,15.03
2019-05-12T03:40:58.383Z,18.03
2019-05-12T03:43:30.635Z,27.13
2019-05-12T03:46:05.268Z,27.60
2019-05-12T03:48:36.343Z,30.67
2019-05-12T03:51:08.286Z,30.30
2019-05-12T03:53:40.269Z,32.40
2019-05-12T03:56:15.052Z,32.07
2019-05-12T03:58:45.954Z,31.00
2019-05-12T04:01:17.890Z,32.87
2019-05-12T04:03:50.004Z,32.07
2019-05-12T04:06:24.542Z,35.30
2019-05-12T04:08:59.923Z,33.07
2019-05-12T04:11:30.761Z,32.03
2019-05-12T04:14:05.474Z,30.70
2019-05-12T04:16:36.847Z,31.10
2019-05-12T04:19:09.122Z,31.37
2019-05-12T04:21:44.364Z,28.30
2019-05-12T04:24:15.087Z,24.53
2019-05-12T04:26:47.249Z,24.03
2019-05-12T04:29:19.224Z,24.37
2019-05-12T04:31:51.169Z,35.37
2019-05-12T04:34:25.085Z,36.43
2019-05-12T04:36:57.035Z,31.93
2019-05-12T04:39:29.017Z,30.27
2019-05-12T04:42:01.253Z,27.43
2019-05-12T04:44:34.681Z,35.13
2019-05-12T04:47:07.067Z,38.43
2019-05-12T04:49:39.028Z,38.27
2019-05-12T04:52:11.168Z,34.90
2019-05-12T04:54:44.487Z,35.27
2019-05-12T04:57:20.841Z,33.67
2019-05-12T04:59:54.093Z,34.17
2019-05-12T05:02:25.240Z,33.17
2019-05-12T05:04:57.370Z,32.30
2019-05-12T05:07:29.315Z,32.40
2019-05-12T05:10:04.460Z,31.63
2019-05-12T05:12:35.114Z,30.40
2019-05-12T05:15:08.887Z,27.37
2019-05-12T05:17:43.978Z,28.65
2019-05-12T05:20:15.109Z,26.62
2019-05-12T05:22:47.106Z,27.00
2019-05-12T05:25:19.041Z,25.70
2019-05-12T05:27:53.249Z,24.10
2019-05-12T05:30:27.168Z,23.92
2019-05-12T05:32:59.216Z,26.07
2019-05-12T05:35:37.177Z,25.93
2019-05-12T05:38:04.951Z,27.17
2019-05-12T05:40:36.908Z,25.73
2019-05-12T05:43:13.888Z,26.93
2019-05-12T05:45:43.823Z,26.20
2019-05-12T05:48:15.929Z,26.37
2019-05-12T05:50:47.897Z,27.23
2019-05-12T05:53:20.313Z,27.43
2019-05-12T05:55:56.316Z,28.73
2019-05-12T05:58:26.331Z,28.17
2019-05-12T06:01:03.872Z,28.10
2019-05-12T06:03:33.861Z,27.50
2019-05-12T06:06:10.722Z,27.53
2019-05-12T06:08:39.921Z,28.43
2019-05-12T06:11:16.895Z,30.40
2019-05-12T06:13:46.667Z,28.03
2019-05-12T06:16:20.771Z,28.27
2019-05-12T06:18:54.403Z,28.37
2019-05-12T06:21:29.105Z,31.43
2019-05-12T06:23:59.886Z,31.37
2019-05-12T06:26:35.307Z,29.40
2019-05-12T06:29:05.622Z,29.10
2019-05-12T06:31:40.280Z,28.63
2019-05-12T06:34:15.165Z,29.03
2019-05-12T06:36:46.104Z,30.83
2019-05-12T06:39:20.589Z,30.50
2019-05-12T06:41:55.187Z,30.30
2019-05-12T06:44:25.788Z,31.67
2019-05-12T06:47:03.301Z,32.07
2019-05-12T06:49:33.741Z,31.20
2019-05-12T06:52:07.185Z,35.03
2019-05-12T06:54:44.521Z,34.83
2019-05-12T06:57:24.195Z,33.43
2019-05-12T06:59:50.988Z,31.20
2019-05-12T07:02:20.214Z,29.53
2019-05-12T07:04:57.276Z,35.40
2019-05-12T07:07:27.725Z,33.57
2019-05-12T07:10:10.450Z,37.07
2019-05-12T07:12:43.487Z,35.87
2019-05-12T07:15:11.124Z,35.63
2019-05-12T07:17:57.111Z,33.00
2019-05-12T07:20:34.160Z,34.73
2019-05-12T07:23:03.967Z,37.33
2019-05-12T07:25:36.776Z,39.63
2019-05-12T07:28:09.145Z,41.27
2019-05-12T07:30:43.905Z,43.70
2019-05-12T07:33:15.637Z,41.87
2019-05-12T07:35:53.370Z,50.90
2019-05-12T07:38:26.031Z,47.93
2019-05-12T07:41:00.711Z,53.77
2019-05-12T07:43:34.157Z,51.27
2019-05-12T07:46:07.248Z,54.57
2019-05-12T07:48:40.255Z,49.73
2019-05-12T07:51:13.875Z,44.30
2019-05-12T07:53:54.249Z,45.77
2019-05-12T07:56:27.625Z,50.00
2019-05-12T07:58:56.915Z,47.67
2019-05-12T08:01:27.787Z,44.97
2019-05-12T08:04:01.303Z,42.77
2019-05-12T08:06:41.399Z,43.57
2019-05-12T08:09:08.503Z,45.30
2019-05-12T08:11:40.751Z,45.27
2019-05-12T08:14:24.826Z,51.10
2019-05-12T08:16:46.458Z,44.17
2019-05-12T08:19:23.867Z,47.17
2019-05-12T08:21:53.771Z,46.43
2019-05-12T08:24:26.003Z,42.60
2019-05-12T08:27:03.001Z,43.60
2019-05-12T08:29:34.137Z,38.63
2019-05-12T08:32:09.927Z,35.67
2019-05-12T08:34:39.969Z,37.73
2019-05-12T08:37:13.952Z,41.03
2019-05-12T08:39:46.082Z,36.23
2019-05-12T08:42:18.065Z,37.20
2019-05-12T08:44:50.551Z,37.10
2019-05-12T08:47:23.868Z,36.63
2019-05-12T08:49:58.745Z,37.03
2019-05-12T08:52:30.570Z,35.67
2019-05-12T08:55:04.404Z,33.83
2019-05-12T08:57:40.621Z,43.40
2019-05-12T09:00:13.284Z,38.43
2019-05-12T09:02:50.297Z,38.90
2019-05-12T09:05:18.864Z,34.97
2019-05-12T09:07:54.127Z,36.53
2019-05-12T09:10:26.141Z,37.50
2019-05-12T09:12:58.295Z,40.70
2019-05-12T09:15:30.542Z,35.10
2019-05-12T09:18:04.854Z,30.87
2019-05-12T09:20:39.415Z,34.50
2019-05-12T09:23:10.660Z,28.87
2019-05-12T09:25:45.074Z,27.70
2019-05-12T09:28:16.603Z,30.13
2019-05-12T09:30:49.511Z,29.50
2019-05-12T09:33:26.778Z,25.13
2019-05-12T09:35:55.389Z,25.90
2019-05-12T09:38:27.436Z,25.87
2019-05-12T09:41:01.076Z,26.37
2019-05-12T09:43:34.397Z,23.00
2019-05-12T09:46:06.566Z,25.43
2019-05-12T09:48:39.113Z,24.30
2019-05-12T09:51:13.331Z,19.70
2019-05-12T09:53:50.799Z,19.43
2019-05-12T09:56:19.843Z,20.77
2019-05-12T09:59:01.584Z,18.97
2019-05-12T10:01:29.249Z,12.50
2019-05-12T10:03:59.380Z,10.37
2019-05-12T10:06:33.776Z,8.50
2019-05-12T10:09:08.924Z,8.37
2019-05-12T10:11:40.271Z,8.33
2019-05-12T10:14:13.988Z,7.93
2019-05-12T10:16:49.727Z,9.67
2019-05-12T10:19:20.222Z,9.87
2019-05-12T10:21:55.310Z,11.40
2019-05-12T10:24:26.049Z,10.60
2019-05-12T10:26:58.043Z,10.43
2019-05-12T10:29:32.447Z,11.07
2019-05-12T10:32:04.529Z,11.90
2019-05-12T10:34:40.253Z,12.17
2019-05-12T10:37:10.644Z,11.20
2019-05-12T10:39:42.674Z,11.83
2019-05-12T10:42:14.727Z,16.30
2019-05-12T10:44:46.733Z,13.87
2019-05-12T10:47:18.821Z,16.20
2019-05-12T10:49:50.927Z,17.10
2019-05-12T10:52:24.396Z,17.97
2019-05-12T10:54:56.554Z,16.40
2019-05-12T10:57:28.622Z,11.27
2019-05-12T11:00:01.047Z,10.20
2019-05-12T11:02:33.651Z,9.90
2019-05-12T11:05:12.434Z,11.90
2019-05-12T11:07:43.451Z,12.87
2019-05-12T11:10:19.834Z,10.97
2019-05-12T11:12:48.887Z,11.87
2019-05-12T11:15:21.345Z,12.90
2019-05-12T11:18:08.279Z,12.60
2019-05-12T11:20:40.636Z,10.83
2019-05-12T11:23:13.755Z,11.37
2019-05-12T11:25:45.917Z,10.30
2019-05-12T11:28:18.058Z,12.63
2019-05-12T11:30:50.461Z,13.73
2019-05-12T11:33:23.786Z,11.53
2019-05-12T11:35:56.017Z,10.30
2019-05-12T11:38:28.120Z,10.63
2019-05-12T11:41:00.131Z,14.33
2019-05-12T11:43:33.796Z,14.00
2019-05-12T11:46:06.026Z,14.90
2019-05-12T11:48:40.243Z,15.07
2019-05-12T11:51:14.273Z,15.57
2019-05-12T11:53:45.792Z,16.83
2019-05-12T11:56:17.814Z,13.83
2019-05-12T11:58:51.499Z,15.27
2019-05-12T12:01:25.217Z,15.63
2019-05-12T12:03:57.413Z,18.23
2019-05-12T12:06:29.719Z,19.93
2019-05-12T12:09:03.831Z,17.43
2019-05-12T12:11:35.921Z,20.37
2019-05-12T12:14:10.550Z,16.67
2019-05-12T12:16:49.787Z,17.57
2019-05-12T12:19:15.624Z,15.37
2019-05-12T12:21:50.094Z,15.40
2019-05-12T12:24:29.742Z,17.67
2019-05-12T12:26:55.315Z,16.90
2019-05-12T12:29:28.287Z,16.10
2019-05-12T12:32:00.580Z,15.47
2019-05-12T12:34:33.182Z,17.47
2019-05-12T12:37:05.461Z,15.67
2019-05-12T12:39:37.453Z,14.53
2019-05-12T12:42:09.607Z,12.70
2019-05-12T12:44:41.599Z,20.00
2019-05-12T12:47:14.012Z,19.10
2019-05-12T12:49:49.250Z,17.03
2019-05-12T12:52:20.006Z,22.40
2019-05-12T12:54:54.190Z,17.33
2019-05-12T12:57:25.847Z,19.87
2019-05-12T12:59:59.654Z,21.57
2019-05-12T13:02:33.744Z,21.63
2019-05-12T13:05:05.687Z,26.27
2019-05-12T13:07:37.722Z,18.43
2019-05-12T13:10:10.959Z,19.17
2019-05-12T13:12:43.682Z,17.90
2019-05-12T13:15:16.367Z,16.60
2019-05-12T13:17:48.456Z,15.97
2019-05-12T13:20:20.703Z,15.50
2019-05-12T13:22:53.611Z,27.07
2019-05-12T13:25:25.824Z,21.37
2019-05-12T13:28:01.446Z,15.13
2019-05-12T13:30:45.918Z,13.80
2019-05-12T13:33:08.917Z,18.90
2019-05-12T13:35:40.659Z,29.27
2019-05-12T13:38:14.481Z,15.23
2019-05-12T13:40:46.703Z,12.90
2019-05-12T13:43:19.729Z,17.43
2019-05-12T13:45:53.468Z,20.13
2019-05-12T13:48:25.677Z,24.80
2019-05-12T13:51:07.397Z,18.47
2019-05-12T13:53:33.378Z,18.93
2019-05-12T13:56:05.043Z,16.03
2019-05-12T13:58:42.829Z,18.70
2019-05-12T14:01:19.941Z,15.80
2019-05-12T14:03:50.520Z,16.03
2019-05-12T14:06:23.041Z,13.83
2019-05-12T14:08:53.808Z,15.83
2019-05-12T14:11:26.137Z,13.30
2019-05-12T14:14:00.847Z,11.37
2019-05-12T14:16:33.897Z,11.63
2019-05-12T14:19:06.402Z,11.97
2019-05-12T14:21:41.207Z,13.70
2019-05-12T14:24:13.929Z,15.70
2019-05-12T14:26:49.392Z,18.67
2019-05-12T14:29:25.379Z,12.20
2019-05-12T14:31:59.617Z,13.17
2019-05-12T14:34:28.002Z,9.77
2019-05-12T14:37:08.453Z,9.97
2019-05-12T14:39:34.430Z,22.43
2019-05-12T14:42:06.739Z,11.73
2019-05-12T14:44:44.993Z,13.80
2019-05-12T14:47:12.459Z,10.50
2019-05-12T14:49:44.472Z,10.77
2019-05-12T14:52:16.539Z,13.40
2019-05-12T14:54:48.669Z,13.77
2019-05-12T14:57:20.943Z,18.43
2019-05-12T14:59:52.960Z,12.17
2019-05-12T15:02:28.206Z,11.67
2019-05-12T15:05:00.271Z,13.70
2019-05-12T15:07:32.568Z,14.60
2019-05-12T15:10:08.695Z,14.50
2019-05-12T15:12:38.439Z,13.23
2019-05-12T15:15:18.386Z,14.00
2019-05-12T15:17:44.810Z,14.00
2019-05-12T15:20:17.040Z,14.20
2019-05-12T15:22:51.655Z,16.37
2019-05-12T15:25:22.678Z,16.27
2019-05-12T15:27:54.780Z,16.27
2019-05-12T15:30:26.986Z,18.27
2019-05-12T15:32:59.130Z,19.73
2019-05-12T15:35:31.158Z,21.27
2019-05-12T15:38:03.883Z,22.17
2019-05-12T15:40:36.079Z,19.97
2019-05-12T15:43:09.327Z,19.33
2019-05-12T15:45:43.603Z,18.40
2019-05-12T15:48:18.417Z,18.73
2019-05-12T15:50:49.244Z,18.73
2019-05-12T15:53:22.379Z,18.47
2019-05-12T15:55:55.112Z,18.93
2019-05-12T15:58:27.175Z,22.17
2019-05-12T16:00:59.166Z,20.87
2019-05-12T16:03:31.335Z,19.80
2019-05-12T16:06:10.042Z,20.87
2019-05-12T16:08:37.331Z,19.30
2019-05-12T16:11:09.330Z,19.57
2019-05-12T16:13:44.849Z,20.93
2019-05-12T16:16:15.319Z,24.70
2019-05-12T16:18:50.630Z,31.13
2019-05-12T16:21:21.765Z,33.40
2019-05-12T16:23:56.724Z,28.77
2019-05-12T16:26:27.647Z,28.97
2019-05-12T16:29:03.173Z,24.53
2019-05-12T16:31:33.999Z,24.50
2019-05-12T16:34:06.300Z,32.83
2019-05-12T16:36:41.183Z,28.03
2019-05-12T16:39:13.490Z,21.30
2019-05-12T16:41:45.651Z,21.90
2019-05-12T16:44:23.091Z,30.40
2019-05-12T16:46:53.437Z,25.77
2019-05-12T16:49:33.354Z,28.63
2019-05-12T16:51:59.183Z,26.00
2019-05-12T16:54:33.437Z,21.13
2019-05-12T16:57:06.338Z,23.10
2019-05-12T16:59:38.853Z,23.47
2019-05-12T17:02:11.360Z,28.23
2019-05-12T17:04:43.472Z,34.90
2019-05-12T17:07:19.365Z,33.10
2019-05-12T17:09:49.455Z,20.40
2019-05-12T17:12:23.862Z,20.10
2019-05-12T17:14:55.201Z,21.27
2019-05-12T17:17:27.336Z,18.93
2019-05-12T17:19:59.331Z,18.83
2019-05-12T17:22:31.311Z,18.00
2019-05-12T17:25:04.958Z,18.20
2019-05-12T17:27:37.096Z,17.30
2019-05-12T17:30:09.680Z,18.13
2019-05-12T17:32:54.905Z,17.10
2019-05-12T17:35:20.169Z,16.90
2019-05-12T17:37:50.594Z,17.30
2019-05-12T17:40:24.283Z,19.00
2019-05-12T17:43:05.210Z,21.23
2019-05-12T17:45:30.408Z,27.23
2019-05-12T17:48:07.418Z,19.80
2019-05-12T17:50:40.349Z,16.90
2019-05-12T17:53:13.576Z,13.87
2019-05-12T17:55:51.285Z,18.83
2019-05-12T17:58:18.323Z,22.10
2019-05-12T18:00:51.909Z,23.33
2019-05-12T18:03:25.759Z,17.07
2019-05-12T18:05:57.984Z,16.27
2019-05-12T18:08:35.824Z,19.10
2019-05-12T18:11:03.933Z,19.20
2019-05-12T18:13:39.807Z,21.37
2019-05-12T18:16:11.418Z,25.50
2019-05-12T18:18:44.373Z,21.50
2019-05-12T18:21:21.485Z,26.77
2019-05-12T18:23:53.660Z,40.23
2019-05-12T18:26:25.980Z,28.07
2019-05-12T18:28:58.137Z,30.47
2019-05-12T18:31:30.516Z,28.20
2019-05-12T18:34:04.745Z,20.70
2019-05-12T18:36:36.304Z,20.90
2019-05-12T18:39:11.841Z,20.60
2019-05-12T18:41:43.926Z,18.47
2019-05-12T18:44:25.293Z,15.20
2019-05-12T18:46:49.981Z,15.33
2019-05-12T18:49:23.843Z,15.13
2019-05-12T18:51:57.226Z,19.00
2019-05-12T18:54:29.496Z,23.77
2019-05-12T18:57:03.113Z,18.93
2019-05-12T18:59:35.209Z,24.27
2019-05-12T19:02:07.606Z,18.70
2019-05-12T19:04:41.226Z,13.27
2019-05-12T19:07:15.322Z,10.57
2019-05-12T19:09:47.583Z,12.37
2019-05-12T19:12:21.608Z,11.77
2019-05-12T19:14:54.719Z,10.20
2019-05-12T19:17:26.839Z,9.87
2019-05-12T19:19:59.781Z,8.33
2019-05-12T19:22:33.649Z,8.50
2019-05-12T19:25:06.037Z,9.00
2019-05-12T19:27:38.066Z,8.37
2019-05-12T19:30:10.206Z,8.90
2019-05-12T19:32:44.471Z,8.13
2019-05-12T19:35:20.354Z,8.03
2019-05-12T19:37:50.793Z,8.63
2019-05-12T19:40:22.920Z,10.83
2019-05-12T19:43:02.119Z,10.03
2019-05-12T19:45:28.878Z,13.27
2019-05-12T19:48:01.252Z,10.63
2019-05-12T19:50:33.377Z,10.93
2019-05-12T19:53:05.609Z,13.77
2019-05-12T19:55:37.651Z,11.10
2019-05-12T19:58:11.375Z,12.87
2019-05-12T20:00:44.445Z,12.60
2019-05-12T20:03:16.659Z,13.07
2019-05-12T20:05:48.853Z,16.30
2019-05-12T20:08:21.025Z,13.80
2019-05-12T20:10:54.148Z,13.27
2019-05-12T20:13:29.546Z,14.97
2019-05-12T20:16:01.338Z,17.37
2019-05-12T20:18:36.092Z,14.40
2019-05-12T20:21:07.164Z,12.57
2019-05-12T20:23:39.365Z,14.30
2019-05-12T20:26:11.459Z,17.67
2019-05-12T20:28:50.087Z,19.57
2019-05-12T20:31:17.300Z,16.40
2019-05-12T20:33:49.337Z,15.30
2019-05-12T20:36:25.912Z,14.50
2019-05-12T20:38:55.612Z,13.47
2019-05-12T20:41:27.699Z,14.43
2019-05-12T20:43:59.758Z,14.20
2019-05-12T20:46:33.969Z,14.23
2019-05-12T20:49:09.703Z,14.80
2019-05-12T20:51:40.171Z,16.83
2019-05-12T20:54:17.938Z,14.63
2019-05-12T20:56:47.048Z,13.67
2019-05-12T20:59:21.953Z,12.77
2019-05-12T21:01:53.195Z,13.20
2019-05-12T21:04:31.434Z,12.80
2019-05-12T21:06:59.103Z,11.10
2019-05-12T21:09:31.202Z,12.73
2019-05-12T21:12:03.175Z,10.30
2019-05-12T21:14:35.167Z,9.33
2019-05-12T21:17:08.861Z,8.37
2019-05-12T21:19:55.454Z,7.40
2019-05-12T21:22:15.041Z,6.00
2019-05-12T21:24:47.061Z,5.57
2019-05-12T21:27:19.940Z,6.23
2019-05-12T21:29:54.083Z,6.80
2019-05-12T21:32:25.717Z,5.93
2019-05-12T21:34:59.466Z,7.33
2019-05-12T21:37:38.674Z,6.40
2019-05-12T21:40:06.346Z,7.43
2019-05-12T21:42:38.526Z,7.20
2019-05-12T21:45:10.609Z,7.20
2019-05-12T21:47:44.343Z,6.70
2019-05-12T21:50:16.941Z,7.17
2019-05-12T21:52:49.039Z,8.40
2019-05-12T21:55:23.215Z,7.60
2019-05-12T21:57:55.003Z,7.20
2019-05-12T22:00:36.830Z,8.33
2019-05-12T22:03:12.994Z,8.57
2019-05-12T22:05:51.302Z,8.17
2019-05-12T22:08:22.033Z,7.83
2019-05-12T22:10:54.219Z,8.00
2019-05-12T22:13:28.154Z,8.33
2019-05-12T22:16:00.668Z,8.90
2019-05-12T22:18:33.345Z,8.20
2019-05-12T22:21:07.203Z,8.60
2019-05-12T22:23:44.533Z,8.03
2019-05-12T22:26:13.030Z,7.60
2019-05-12T22:28:50.836Z,7.63
2019-05-12T22:31:20.961Z,8.03
2019-05-12T22:33:56.393Z,7.37
2019-05-12T22:36:30.129Z,7.83
2019-05-12T22:39:03.089Z,7.83
2019-05-12T22:41:41.111Z,7.80
2019-05-12T22:44:09.274Z,6.97
2019-05-12T22:46:43.576Z,7.60
2019-05-12T22:49:20.730Z,7.57
2019-05-12T22:51:54.561Z,7.77
2019-05-12T22:54:24.287Z,7.90
2019-05-12T22:56:56.980Z,7.97
2019-05-12T22:59:32.076Z,6.53
2019-05-12T23:02:04.446Z,7.80
2019-05-12T23:04:40.404Z,6.10
2019-05-12T23:07:13.652Z,7.00
2019-05-12T23:09:46.041Z,5.87
2019-05-12T23:12:20.079Z,6.30
2019-05-12T23:14:56.505Z,6.50
2019-05-12T23:17:25.988Z,7.20
2019-05-12T23:19:57.962Z,6.80
2019-05-12T23:22:35.009Z,6.37
2019-05-12T23:25:04.334Z,6.10
2019-05-12T23:27:36.296Z,7.00
2019-05-12T23:30:12.595Z,6.37
2019-05-12T23:32:51.275Z,6.47
2019-05-12T23:35:17.619Z,6.30
2019-05-12T23:37:50.370Z,6.20
2019-05-12T23:40:23.591Z,5.83
2019-05-12T23:42:55.746Z,6.90
2019-05-12T23:45:27.723Z,5.93
2019-05-12T23:47:59.759Z,5.73
2019-05-12T23:50:31.779Z,5.80
2019-05-12T23:53:04.035Z,5.40
2019-05-12T23:55:36.081Z,5.43
2019-05-12T23:58:08.092Z,4.57
